Terminal Aerodrome Forecast
Issued by NWS

Home | Current Version | Previous Version | Text Only | Print | Product List | Glossary On
Versions: 1 2 3 4 5 6 7 8 9 10 11 12
023
FTUS41 KBTV 232342
TAFSLK
TAF
KSLK 232342Z 2400/2424 16009G21KT P6SM BKN060
     FM240400 17013G25KT P6SM BKN040
     FM241000 16016G30KT P6SM VCSH BKN045
     FM241200 17017G31KT 5SM -RA BR BKN030
     FM241800 16013G28KT 4SM RA BR OVC015
     FM242000 18010G21KT 3SM +RA BR OVC008
     FM242300 19009G17KT 4SM RA BR OVC015=

USA.gov is the U.S. government's official web portal to all federal, state and local government web resources and services.